createdAt,value
2022-10-06T00:00:11.069Z,101309.47
2022-10-06T00:04:15.826Z,101314.75
2022-10-06T00:08:19.594Z,101329.75
2022-10-06T00:12:22.670Z,101336.75
2022-10-06T00:16:25.610Z,101342.03
2022-10-06T00:20:30.303Z,101358.94
2022-10-06T00:24:33.082Z,101361.47
2022-10-06T00:28:36.072Z,101362.13
2022-10-06T00:32:40.076Z,101368.47
2022-10-06T00:36:44.863Z,101379.88
2022-10-06T00:40:49.662Z,101382.84
2022-10-06T00:44:52.742Z,101386.88
2022-10-06T00:49:02.149Z,101393.19
2022-10-06T00:53:07.059Z,101402.50
2022-10-06T00:57:09.913Z,101395.31
2022-10-06T01:01:14.236Z,101399.13
2022-10-06T01:05:21.718Z,101401.44
2022-10-06T01:09:26.287Z,101425.34
2022-10-06T01:13:30.670Z,101422.81
2022-10-06T01:17:38.803Z,101432.94
2022-10-06T01:21:47.692Z,101435.03
2022-10-06T01:25:52.103Z,101444.81
2022-10-06T01:29:56.803Z,101443.94
2022-10-06T01:33:59.688Z,101450.25
2022-10-06T01:38:02.466Z,101458.22
2022-10-06T01:42:06.910Z,101459.09
2022-10-06T01:46:09.856Z,101466.47
2022-10-06T01:50:12.631Z,101469.22
2022-10-06T01:54:15.609Z,101463.88
2022-10-06T01:58:20.213Z,101455.22
2022-10-06T02:02:23.290Z,101463.22
2022-10-06T02:06:26.261Z,101462.38
2022-10-06T02:10:29.172Z,101471.63
2022-10-06T02:14:34.511Z,101466.53
2022-10-06T02:18:37.957Z,101468.16
2022-10-06T02:22:41.336Z,101480.03
2022-10-06T02:26:44.547Z,101484.63
2022-10-06T02:30:48.764Z,101493.44
2022-10-06T02:34:51.683Z,101490.03
2022-10-06T02:38:55.214Z,101495.03
2022-10-06T02:42:58.093Z,101505.47
2022-10-06T02:47:02.322Z,101509.69
2022-10-06T02:51:08.081Z,101520.16
2022-10-06T02:55:12.204Z,101524.75
2022-10-06T02:59:15.666Z,101537.19
2022-10-06T03:03:19.858Z,101534.25
2022-10-06T03:07:22.710Z,101533.59
2022-10-06T03:11:27.563Z,101547.91
2022-10-06T03:15:30.271Z,101550.25
2022-10-06T03:19:34.496Z,101559.53
2022-10-06T03:23:37.357Z,101567.94
2022-10-06T03:27:40.057Z,101572.19
2022-10-06T03:31:43.264Z,101573.91
2022-10-06T03:35:47.606Z,101581.84
2022-10-06T03:39:50.329Z,101579.03
2022-10-06T03:43:54.678Z,101593.59
2022-10-06T03:47:57.585Z,101606.75
2022-10-06T03:52:01.776Z,101613.84
2022-10-06T03:56:06.753Z,101608.75
2022-10-06T04:00:10.462Z,101616.88
2022-10-06T04:04:13.903Z,101621.81
2022-10-06T04:08:18.116Z,101639.00
2022-10-06T04:12:21.060Z,101635.72
2022-10-06T04:16:26.130Z,101644.03
2022-10-06T04:20:29.417Z,101636.78
2022-10-06T04:24:33.898Z,101648.88
2022-10-06T04:28:38.372Z,101649.63
2022-10-06T04:32:41.145Z,101661.91
2022-10-06T04:36:44.304Z,101656.50
2022-10-06T04:40:48.481Z,101665.97
2022-10-06T04:44:51.536Z,101666.13
2022-10-06T04:48:55.703Z,101664.34
2022-10-06T04:52:58.691Z,101674.44
2022-10-06T04:57:03.261Z,101671.31
2022-10-06T05:01:15.244Z,101681.06
2022-10-06T05:05:18.331Z,101677.75
2022-10-06T05:09:21.201Z,101692.56
2022-10-06T05:13:25.990Z,101695.84
2022-10-06T05:17:29.574Z,101700.00
2022-10-06T05:21:33.362Z,101707.00
2022-10-06T05:25:36.379Z,101715.28
2022-10-06T05:29:40.914Z,101715.66
2022-10-06T05:33:44.013Z,101731.72
2022-10-06T05:37:46.859Z,101734.44
2022-10-06T05:41:50.073Z,101746.81
2022-10-06T05:45:58.313Z,101743.75
2022-10-06T05:50:01.072Z,101751.31
2022-10-06T05:54:04.763Z,101757.50
2022-10-06T05:58:07.704Z,101768.09
2022-10-06T06:02:13.682Z,101776.00
2022-10-06T06:06:18.684Z,101773.09
2022-10-06T06:10:21.699Z,101783.19
2022-10-06T06:14:44.973Z,101786.59
2022-10-06T06:18:49.109Z,101793.84
2022-10-06T06:22:53.950Z,101784.81
2022-10-06T06:26:56.791Z,101801.75
2022-10-06T06:31:02.752Z,101803.94
2022-10-06T06:35:08.279Z,101810.44
2022-10-06T06:39:13.058Z,101806.53
2022-10-06T06:43:15.815Z,101816.94
2022-10-06T06:47:20.827Z,101816.50
2022-10-06T06:51:27.902Z,101819.16
2022-10-06T06:55:30.626Z,101818.53
2022-10-06T06:59:34.123Z,101825.25
2022-10-06T07:03:56.502Z,101831.63
2022-10-06T07:08:01.270Z,101827.78
2022-10-06T07:12:04.171Z,101836.44
2022-10-06T07:16:25.177Z,101847.25
2022-10-06T07:20:45.857Z,101839.16
2022-10-06T07:25:07.301Z,101838.81
2022-10-06T07:29:10.413Z,101839.13
2022-10-06T07:33:14.846Z,101849.09
2022-10-06T07:37:18.090Z,101852.91
2022-10-06T07:41:22.570Z,101864.50
2022-10-06T07:45:42.457Z,101862.75
2022-10-06T07:49:47.489Z,101869.50
2022-10-06T07:53:51.419Z,101878.94
2022-10-06T07:57:55.504Z,101876.78
2022-10-06T08:01:58.440Z,101879.00
2022-10-06T08:06:03.203Z,101879.41
2022-10-06T08:10:06.745Z,101886.22
2022-10-06T08:14:10.823Z,101885.09
2022-10-06T08:18:33.802Z,101894.69
2022-10-06T08:22:38.933Z,101903.97
2022-10-06T08:26:44.122Z,101903.56
2022-10-06T08:30:48.185Z,101908.19
2022-10-06T08:34:51.954Z,101899.47
2022-10-06T08:38:55.535Z,101915.31
2022-10-06T08:43:02.432Z,101914.13
2022-10-06T08:47:13.981Z,101917.03
2022-10-06T08:51:27.775Z,101926.22
2022-10-06T08:55:43.293Z,101919.16
2022-10-06T08:59:49.420Z,101929.22
2022-10-06T09:03:56.443Z,101943.75
2022-10-06T09:08:24.673Z,101940.78
2022-10-06T09:12:33.868Z,101939.31
2022-10-06T09:16:43.018Z,101949.38
2022-10-06T09:20:53.565Z,101964.88
2022-10-06T09:25:00.358Z,101964.38
2022-10-06T09:29:03.634Z,101965.84
2022-10-06T09:33:09.151Z,101969.28
2022-10-06T09:37:14.779Z,101970.31
2022-10-06T09:41:17.717Z,101970.44
2022-10-06T09:45:26.266Z,101971.72
2022-10-06T09:49:31.469Z,101972.78
2022-10-06T09:53:37.744Z,101979.88
2022-10-06T09:57:49.510Z,101974.72
2022-10-06T10:01:53.982Z,101976.47
2022-10-06T10:05:56.838Z,101981.88
2022-10-06T10:10:21.879Z,101971.69
2022-10-06T10:14:24.798Z,101981.50
2022-10-06T10:18:30.341Z,101987.09
2022-10-06T10:22:37.383Z,101980.19
2022-10-06T10:26:49.230Z,101982.34
2022-10-06T10:31:03.682Z,101990.28
2022-10-06T10:35:18.289Z,101992.69
2022-10-06T10:39:31.424Z,101989.75
2022-10-06T10:43:39.027Z,101981.25
2022-10-06T10:47:45.729Z,101997.38
2022-10-06T10:51:53.762Z,101994.97
2022-10-06T10:55:57.957Z,101982.19
2022-10-06T11:00:07.504Z,101994.81
2022-10-06T11:04:14.067Z,101990.41
2022-10-06T11:08:23.261Z,101997.13
2022-10-06T11:12:40.061Z,101998.19
2022-10-06T11:16:53.683Z,101993.75
2022-10-06T11:21:01.059Z,102013.84
2022-10-06T11:25:20.879Z,102000.72
2022-10-06T11:29:35.396Z,102008.38
2022-10-06T11:33:48.241Z,102000.56
2022-10-06T11:37:57.111Z,102017.16
2022-10-06T11:42:08.073Z,101999.06
2022-10-06T11:46:24.076Z,102005.47
2022-10-06T11:50:36.585Z,102000.91
2022-10-06T11:54:50.493Z,101987.66
2022-10-06T11:59:10.955Z,101991.09
2022-10-06T12:03:41.469Z,101987.56
2022-10-06T12:08:16.813Z,101979.75
2022-10-06T12:12:47.807Z,101974.59
2022-10-06T12:17:14.189Z,101984.16
2022-10-06T12:21:34.892Z,101983.94
2022-10-06T12:25:47.527Z,101975.72
2022-10-06T12:29:54.599Z,101974.94
2022-10-06T12:33:57.917Z,101975.91
2022-10-06T12:38:05.091Z,101973.72
2022-10-06T12:42:20.532Z,101967.47
2022-10-06T12:46:46.502Z,101960.44
2022-10-06T12:50:58.284Z,101966.19
2022-10-06T12:55:16.494Z,101964.72
2022-10-06T12:59:25.451Z,101964.25
2022-10-06T13:03:30.004Z,101963.97
2022-10-06T13:07:34.688Z,101965.69
2022-10-06T13:11:37.543Z,101956.25
2022-10-06T13:15:44.466Z,101962.56
2022-10-06T13:19:47.470Z,101957.13
2022-10-06T13:23:51.089Z,101951.56
2022-10-06T13:27:54.007Z,101943.44
2022-10-06T13:31:58.390Z,101942.81
2022-10-06T13:36:01.475Z,101956.25
2022-10-06T13:40:22.058Z,101949.78
2022-10-06T13:44:36.716Z,101946.59
2022-10-06T13:48:47.176Z,101951.69
2022-10-06T13:52:50.784Z,101960.00
2022-10-06T13:56:54.047Z,101946.91
2022-10-06T14:01:01.021Z,101949.00
2022-10-06T14:05:29.988Z,101940.31
2022-10-06T14:09:34.967Z,101937.34
2022-10-06T14:13:46.190Z,101951.59
2022-10-06T14:17:55.267Z,101949.31
2022-10-06T14:21:59.825Z,101942.56
2022-10-06T14:26:02.799Z,101954.56
2022-10-06T14:30:06.545Z,101944.63
2022-10-06T14:34:14.621Z,101951.34
2022-10-06T14:38:19.041Z,101957.72
2022-10-06T14:42:24.442Z,101953.03
2022-10-06T14:46:27.451Z,101941.94
2022-10-06T14:50:30.699Z,101943.69
2022-10-06T14:54:35.153Z,101939.72
2022-10-06T14:58:39.830Z,101941.00
2022-10-06T15:02:42.786Z,101950.13
2022-10-06T15:07:02.979Z,101949.75
2022-10-06T15:11:07.111Z,101938.81
2022-10-06T15:15:10.527Z,101929.56
2022-10-06T15:19:13.965Z,101937.00
2022-10-06T15:23:17.614Z,101937.81
2022-10-06T15:27:42.425Z,101927.84
2022-10-06T15:31:48.387Z,101922.22
2022-10-06T15:36:15.079Z,101919.44
2022-10-06T15:40:18.189Z,101916.94
2022-10-06T15:44:22.941Z,101913.31
2022-10-06T15:48:25.802Z,101922.31
2022-10-06T15:52:34.059Z,101911.16
2022-10-06T15:56:37.616Z,101916.66
2022-10-06T16:00:42.351Z,101915.25
2022-10-06T16:04:57.664Z,101914.91
2022-10-06T16:09:00.463Z,101913.22
2022-10-06T16:13:03.219Z,101915.94
2022-10-06T16:17:08.346Z,101908.41
2022-10-06T16:21:11.179Z,101912.03
2022-10-06T16:25:14.118Z,101909.66
2022-10-06T16:29:18.331Z,101907.50
2022-10-06T16:33:22.563Z,101908.69
2022-10-06T16:37:25.949Z,101903.66
2022-10-06T16:41:28.697Z,101896.94
2022-10-06T16:45:31.805Z,101901.34
2022-10-06T16:49:36.105Z,101899.47
2022-10-06T16:53:40.433Z,101908.28
2022-10-06T16:57:43.385Z,101914.03
2022-10-06T17:01:46.707Z,101915.88
2022-10-06T17:05:51.043Z,101909.44
2022-10-06T17:10:18.429Z,101911.53
2022-10-06T17:14:17.616Z,101906.13
2022-10-06T17:18:21.668Z,101914.81
2022-10-06T17:22:26.061Z,101908.56
2022-10-06T17:26:31.263Z,101906.63
2022-10-06T17:30:34.226Z,101913.31
2022-10-06T17:34:39.831Z,101913.88
2022-10-06T17:38:46.087Z,101908.78
2022-10-06T17:42:48.934Z,101907.78
2022-10-06T17:46:54.109Z,101915.88
2022-10-06T17:51:00.400Z,101920.97
2022-10-06T17:55:06.140Z,101920.84
2022-10-06T17:59:13.985Z,101916.13
2022-10-06T18:03:17.538Z,101922.53
2022-10-06T18:07:20.972Z,101921.63
2022-10-06T18:11:36.008Z,101927.00
2022-10-06T18:15:40.385Z,101942.00
2022-10-06T18:19:44.342Z,101948.81
2022-10-06T18:23:47.443Z,101956.94
2022-10-06T18:27:52.058Z,101964.31
2022-10-06T18:31:55.990Z,101960.03
2022-10-06T18:36:18.145Z,101958.88
2022-10-06T18:40:21.321Z,101965.91
2022-10-06T18:44:39.805Z,101965.56
2022-10-06T18:48:58.827Z,101971.03
2022-10-06T18:53:04.057Z,101976.66
2022-10-06T18:57:06.774Z,101968.03
2022-10-06T19:01:11.696Z,101972.28
2022-10-06T19:05:14.557Z,101959.22
2022-10-06T19:09:19.543Z,101974.31
2022-10-06T19:13:22.388Z,101976.06
2022-10-06T19:17:26.863Z,101977.66
2022-10-06T19:21:29.702Z,101981.22
2022-10-06T19:25:33.467Z,101981.06
2022-10-06T19:29:37.681Z,101978.31
2022-10-06T19:33:42.179Z,101974.22
2022-10-06T19:37:45.409Z,101970.44
2022-10-06T19:42:06.568Z,101977.31
2022-10-06T19:46:09.365Z,101980.41
2022-10-06T19:50:13.773Z,101988.97
2022-10-06T19:54:19.057Z,101984.84
2022-10-06T19:58:22.356Z,101984.72
2022-10-06T20:02:25.143Z,101983.50
2022-10-06T20:06:30.598Z,101981.06
2022-10-06T20:10:34.597Z,101980.75
2022-10-06T20:14:37.597Z,102000.56
2022-10-06T20:18:42.230Z,101997.00
2022-10-06T20:22:46.491Z,101991.53
2022-10-06T20:26:50.580Z,101992.06
2022-10-06T20:30:53.722Z,101987.78
2022-10-06T20:34:58.048Z,101995.47
2022-10-06T20:39:26.240Z,102000.22
2022-10-06T20:43:29.497Z,102001.94
2022-10-06T20:47:32.870Z,101986.41
2022-10-06T20:51:37.647Z,101974.22
2022-10-06T20:55:41.930Z,101954.38
2022-10-06T20:59:45.784Z,101958.16
2022-10-06T21:03:50.225Z,101949.53
2022-10-06T21:07:53.584Z,101949.16
2022-10-06T21:11:58.000Z,101952.00
2022-10-06T21:16:01.393Z,101947.19
2022-10-06T21:20:05.982Z,101945.84
2022-10-06T21:24:09.723Z,101937.56
2022-10-06T21:28:14.610Z,101942.09
2022-10-06T21:32:17.773Z,101932.53
2022-10-06T21:36:22.153Z,101933.88
2022-10-06T21:40:25.081Z,101934.91
2022-10-06T21:44:29.842Z,101936.28
2022-10-06T21:48:32.738Z,101928.44
2022-10-06T21:52:35.698Z,101923.00
2022-10-06T21:56:39.336Z,101918.50
2022-10-06T22:00:43.746Z,101911.34
2022-10-06T22:04:46.646Z,101903.84
2022-10-06T22:08:50.197Z,101910.34
2022-10-06T22:12:53.546Z,101903.44
2022-10-06T22:16:57.760Z,101897.13
2022-10-06T22:21:01.145Z,101893.22
2022-10-06T22:25:04.562Z,101890.63
2022-10-06T22:29:09.388Z,101880.91
2022-10-06T22:33:13.770Z,101886.03
2022-10-06T22:37:16.604Z,101886.38
2022-10-06T22:41:19.649Z,101881.28
2022-10-06T22:45:22.647Z,101874.09
2022-10-06T22:49:27.021Z,101878.56
2022-10-06T22:53:31.685Z,101866.91
2022-10-06T22:57:34.493Z,101857.69
2022-10-06T23:01:37.503Z,101853.13
2022-10-06T23:05:42.312Z,101847.09
2022-10-06T23:09:45.318Z,101836.53
2022-10-06T23:13:50.374Z,101834.47
2022-10-06T23:17:54.040Z,101838.09
2022-10-06T23:21:58.401Z,101828.38
2022-10-06T23:26:06.912Z,101839.66
2022-10-06T23:30:11.380Z,101836.13
2022-10-06T23:34:14.213Z,101838.50
2022-10-06T23:38:18.509Z,101832.88
2022-10-06T23:42:21.383Z,101825.69
2022-10-06T23:46:24.232Z,101825.19
2022-10-06T23:50:27.170Z,101822.81
2022-10-06T23:54:31.574Z,101817.91
2022-10-06T23:58:35.269Z,101819.25
